sensor_id;sensor_type;location;lat;lon;timestamp;temperature;humidity
46508;DHT22;32223;53.654;10.014;2023-01-19T00:02:20;1.10;99.90
46508;DHT22;32223;53.654;10.014;2023-01-19T00:04:46;1.10;99.90
46508;DHT22;32223;53.654;10.014;2023-01-19T00:07:12;1.10;99.90
46508;DHT22;32223;53.654;10.014;2023-01-19T00:09:37;1.10;99.90
46508;DHT22;32223;53.654;10.014;2023-01-19T00:12:04;1.10;99.90
46508;DHT22;32223;53.654;10.014;2023-01-19T00:14:30;1.10;99.90
46508;DHT22;32223;53.654;10.014;2023-01-19T00:16:56;1.10;99.90
46508;DHT22;32223;53.654;10.014;2023-01-19T00:19:22;1.10;99.90
46508;DHT22;32223;53.654;10.014;2023-01-19T00:21:47;1.10;99.90
46508;DHT22;32223;53.654;10.014;2023-01-19T00:24:13;1.10;99.90
46508;DHT22;32223;53.654;10.014;2023-01-19T00:26:39;1.10;99.90
46508;DHT22;32223;53.654;10.014;2023-01-19T00:29:09;1.20;99.90
46508;DHT22;32223;53.654;10.014;2023-01-19T00:31:34;1.20;99.90
46508;DHT22;32223;53.654;10.014;2023-01-19T00:34:01;1.20;99.90
46508;DHT22;32223;53.654;10.014;2023-01-19T00:36:27;1.30;99.90
46508;DHT22;32223;53.654;10.014;2023-01-19T00:38:52;1.30;99.90
46508;DHT22;32223;53.654;10.014;2023-01-19T00:41:18;1.30;99.90
46508;DHT22;32223;53.654;10.014;2023-01-19T00:44:04;1.40;99.90
46508;DHT22;32223;53.654;10.014;2023-01-19T00:46:29;1.40;99.90
46508;DHT22;32223;53.654;10.014;2023-01-19T00:48:55;1.40;99.90
46508;DHT22;32223;53.654;10.014;2023-01-19T00:51:20;1.40;99.90
46508;DHT22;32223;53.654;10.014;2023-01-19T00:53:46;1.50;99.90
46508;DHT22;32223;53.654;10.014;2023-01-19T00:56:11;1.50;99.90
46508;DHT22;32223;53.654;10.014;2023-01-19T00:58:37;1.50;99.90
46508;DHT22;32223;53.654;10.014;2023-01-19T01:01:03;1.60;99.90
46508;DHT22;32223;53.654;10.014;2023-01-19T01:03:30;1.60;99.90
46508;DHT22;32223;53.654;10.014;2023-01-19T01:05:56;1.50;99.90
46508;DHT22;32223;53.654;10.014;2023-01-19T01:08:22;1.60;99.90
46508;DHT22;32223;53.654;10.014;2023-01-19T01:10:49;1.60;99.90
46508;DHT22;32223;53.654;10.014;2023-01-19T01:13:15;1.60;99.90
46508;DHT22;32223;53.654;10.014;2023-01-19T01:15:41;1.60;99.90
46508;DHT22;32223;53.654;10.014;2023-01-19T01:18:07;1.60;99.90
46508;DHT22;32223;53.654;10.014;2023-01-19T01:20:33;1.70;99.90
46508;DHT22;32223;53.654;10.014;2023-01-19T01:22:59;1.70;99.90
46508;DHT22;32223;53.654;10.014;2023-01-19T01:25:25;1.70;99.90
46508;DHT22;32223;53.654;10.014;2023-01-19T01:27:52;1.80;99.90
46508;DHT22;32223;53.654;10.014;2023-01-19T01:30:18;1.80;99.90
46508;DHT22;32223;53.654;10.014;2023-01-19T01:32:44;1.70;99.90
46508;DHT22;32223;53.654;10.014;2023-01-19T01:35:10;1.80;99.90
46508;DHT22;32223;53.654;10.014;2023-01-19T01:37:37;1.80;99.90
46508;DHT22;32223;53.654;10.014;2023-01-19T01:40:04;1.80;99.90
46508;DHT22;32223;53.654;10.014;2023-01-19T01:42:31;1.80;99.90
46508;DHT22;32223;53.654;10.014;2023-01-19T01:44:59;1.70;99.90
46508;DHT22;32223;53.654;10.014;2023-01-19T01:47:39;1.70;99.90
46508;DHT22;32223;53.654;10.014;2023-01-19T01:50:20;1.70;99.90
46508;DHT22;32223;53.654;10.014;2023-01-19T01:52:55;1.70;99.90
46508;DHT22;32223;53.654;10.014;2023-01-19T01:55:24;1.70;99.90
46508;DHT22;32223;53.654;10.014;2023-01-19T01:57:53;1.70;99.90
46508;DHT22;32223;53.654;10.014;2023-01-19T02:00:22;1.80;99.90
46508;DHT22;32223;53.654;10.014;2023-01-19T02:02:48;1.80;99.90
46508;DHT22;32223;53.654;10.014;2023-01-19T02:05:32;1.80;99.90
46508;DHT22;32223;53.654;10.014;2023-01-19T02:08:42;1.80;99.90
46508;DHT22;32223;53.654;10.014;2023-01-19T02:11:19;1.90;99.90
46508;DHT22;32223;53.654;10.014;2023-01-19T02:14:04;1.90;99.90
46508;DHT22;32223;53.654;10.014;2023-01-19T02:16:30;1.90;99.90
46508;DHT22;32223;53.654;10.014;2023-01-19T02:18:56;1.90;99.90
46508;DHT22;32223;53.654;10.014;2023-01-19T02:21:40;2.00;99.90
46508;DHT22;32223;53.654;10.014;2023-01-19T02:24:08;1.90;99.90
46508;DHT22;32223;53.654;10.014;2023-01-19T02:26:43;2.00;99.90
46508;DHT22;32223;53.654;10.014;2023-01-19T02:29:12;2.00;99.90
46508;DHT22;32223;53.654;10.014;2023-01-19T02:31:39;2.00;99.90
46508;DHT22;32223;53.654;10.014;2023-01-19T02:34:07;2.00;99.90
46508;DHT22;32223;53.654;10.014;2023-01-19T02:39:09;2.00;99.90
46508;DHT22;32223;53.654;10.014;2023-01-19T02:41:42;2.00;99.90
46508;DHT22;32223;53.654;10.014;2023-01-19T02:44:10;2.00;99.90
46508;DHT22;32223;53.654;10.014;2023-01-19T02:46:37;1.90;99.90
46508;DHT22;32223;53.654;10.014;2023-01-19T02:49:03;2.00;99.90
46508;DHT22;32223;53.654;10.014;2023-01-19T02:51:29;2.00;99.90
46508;DHT22;32223;53.654;10.014;2023-01-19T02:59:15;2.10;99.90
46508;DHT22;32223;53.654;10.014;2023-01-19T03:05:16;2.10;99.90
46508;DHT22;32223;53.654;10.014;2023-01-19T03:07:58;2.10;99.90
46508;DHT22;32223;53.654;10.014;2023-01-19T03:15:51;2.00;99.90
46508;DHT22;32223;53.654;10.014;2023-01-19T03:18:22;2.10;99.90
46508;DHT22;32223;53.654;10.014;2023-01-19T03:20:50;2.10;99.90
46508;DHT22;32223;53.654;10.014;2023-01-19T03:23:20;2.10;99.90
46508;DHT22;32223;53.654;10.014;2023-01-19T03:25:48;2.10;99.90
46508;DHT22;32223;53.654;10.014;2023-01-19T03:28:17;2.10;99.90
46508;DHT22;32223;53.654;10.014;2023-01-19T03:30:48;2.10;99.90
46508;DHT22;32223;53.654;10.014;2023-01-19T03:33:19;2.10;99.90
46508;DHT22;32223;53.654;10.014;2023-01-19T03:35:49;2.00;99.90
46508;DHT22;32223;53.654;10.014;2023-01-19T03:38:19;2.00;99.90
46508;DHT22;32223;53.654;10.014;2023-01-19T03:40:48;2.00;99.90
46508;DHT22;32223;53.654;10.014;2023-01-19T03:43:15;2.00;99.90
46508;DHT22;32223;53.654;10.014;2023-01-19T03:45:42;2.00;99.90
46508;DHT22;32223;53.654;10.014;2023-01-19T03:48:08;2.10;99.90
46508;DHT22;32223;53.654;10.014;2023-01-19T03:50:34;2.10;99.90
46508;DHT22;32223;53.654;10.014;2023-01-19T03:55:26;2.00;99.90
46508;DHT22;32223;53.654;10.014;2023-01-19T03:57:51;2.00;99.90
46508;DHT22;32223;53.654;10.014;2023-01-19T04:00:18;2.00;99.90
46508;DHT22;32223;53.654;10.014;2023-01-19T04:02:44;2.00;99.90
46508;DHT22;32223;53.654;10.014;2023-01-19T04:05:09;2.00;99.90
46508;DHT22;32223;53.654;10.014;2023-01-19T04:07:35;2.00;99.90
46508;DHT22;32223;53.654;10.014;2023-01-19T04:10:00;2.00;99.90
46508;DHT22;32223;53.654;10.014;2023-01-19T04:12:26;2.00;99.90
46508;DHT22;32223;53.654;10.014;2023-01-19T04:14:52;2.00;99.90
46508;DHT22;32223;53.654;10.014;2023-01-19T04:17:17;2.00;99.90
46508;DHT22;32223;53.654;10.014;2023-01-19T04:19:43;2.00;99.90
46508;DHT22;32223;53.654;10.014;2023-01-19T04:22:09;1.90;99.90
46508;DHT22;32223;53.654;10.014;2023-01-19T04:24:35;2.00;99.90
46508;DHT22;32223;53.654;10.014;2023-01-19T04:27:00;2.00;99.90
46508;DHT22;32223;53.654;10.014;2023-01-19T04:29:26;2.00;99.90
46508;DHT22;32223;53.654;10.014;2023-01-19T04:31:51;2.00;99.90
46508;DHT22;32223;53.654;10.014;2023-01-19T04:34:17;2.00;99.90
46508;DHT22;32223;53.654;10.014;2023-01-19T04:36:42;2.00;99.90
46508;DHT22;32223;53.654;10.014;2023-01-19T04:39:09;2.00;99.90
46508;DHT22;32223;53.654;10.014;2023-01-19T04:41:36;2.10;99.90
46508;DHT22;32223;53.654;10.014;2023-01-19T04:44:01;2.00;99.90
46508;DHT22;32223;53.654;10.014;2023-01-19T04:46:27;2.00;99.90
46508;DHT22;32223;53.654;10.014;2023-01-19T04:48:53;2.00;99.90
46508;DHT22;32223;53.654;10.014;2023-01-19T04:51:18;2.00;99.90
46508;DHT22;32223;53.654;10.014;2023-01-19T04:53:44;2.00;99.90
46508;DHT22;32223;53.654;10.014;2023-01-19T04:56:10;2.00;99.90
46508;DHT22;32223;53.654;10.014;2023-01-19T04:58:35;2.00;99.90
46508;DHT22;32223;53.654;10.014;2023-01-19T05:01:01;2.00;99.90
46508;DHT22;32223;53.654;10.014;2023-01-19T05:03:26;2.00;99.90
46508;DHT22;32223;53.654;10.014;2023-01-19T05:05:52;1.90;99.90
46508;DHT22;32223;53.654;10.014;2023-01-19T05:08:17;1.90;99.90
46508;DHT22;32223;53.654;10.014;2023-01-19T05:10:43;2.00;99.90
46508;DHT22;32223;53.654;10.014;2023-01-19T05:13:08;2.00;99.90
46508;DHT22;32223;53.654;10.014;2023-01-19T05:15:34;2.00;99.90
46508;DHT22;32223;53.654;10.014;2023-01-19T05:18:00;2.00;99.90
46508;DHT22;32223;53.654;10.014;2023-01-19T05:20:25;2.00;99.90
46508;DHT22;32223;53.654;10.014;2023-01-19T05:22:51;2.00;99.90
46508;DHT22;32223;53.654;10.014;2023-01-19T05:25:17;2.00;99.90
46508;DHT22;32223;53.654;10.014;2023-01-19T05:27:43;2.00;99.90
46508;DHT22;32223;53.654;10.014;2023-01-19T05:30:10;2.00;99.90
46508;DHT22;32223;53.654;10.014;2023-01-19T05:32:36;2.00;99.90
46508;DHT22;32223;53.654;10.014;2023-01-19T05:35:03;2.10;99.90
46508;DHT22;32223;53.654;10.014;2023-01-19T05:37:28;2.10;99.90
46508;DHT22;32223;53.654;10.014;2023-01-19T05:39:56;2.10;99.90
46508;DHT22;32223;53.654;10.014;2023-01-19T05:42:21;2.10;99.90
46508;DHT22;32223;53.654;10.014;2023-01-19T05:44:47;2.00;99.90
46508;DHT22;32223;53.654;10.014;2023-01-19T05:47:13;2.10;99.90
46508;DHT22;32223;53.654;10.014;2023-01-19T05:49:38;2.10;99.90
46508;DHT22;32223;53.654;10.014;2023-01-19T05:52:04;2.00;99.90
46508;DHT22;32223;53.654;10.014;2023-01-19T05:54:29;2.10;99.90
46508;DHT22;32223;53.654;10.014;2023-01-19T05:56:55;2.10;99.90
46508;DHT22;32223;53.654;10.014;2023-01-19T05:59:20;2.00;99.90
46508;DHT22;32223;53.654;10.014;2023-01-19T06:01:51;2.00;99.90
46508;DHT22;32223;53.654;10.014;2023-01-19T06:04:18;2.10;99.90
46508;DHT22;32223;53.654;10.014;2023-01-19T06:06:46;2.00;99.90
46508;DHT22;32223;53.654;10.014;2023-01-19T06:09:12;2.00;99.90
46508;DHT22;32223;53.654;10.014;2023-01-19T06:11:37;2.00;99.90
46508;DHT22;32223;53.654;10.014;2023-01-19T06:14:03;2.10;99.90
46508;DHT22;32223;53.654;10.014;2023-01-19T06:16:29;2.00;99.90
46508;DHT22;32223;53.654;10.014;2023-01-19T06:18:55;2.00;99.90
46508;DHT22;32223;53.654;10.014;2023-01-19T06:21:20;2.00;99.90
46508;DHT22;32223;53.654;10.014;2023-01-19T06:23:46;2.00;99.90
46508;DHT22;32223;53.654;10.014;2023-01-19T06:26:11;2.00;99.90
46508;DHT22;32223;53.654;10.014;2023-01-19T06:28:37;2.00;99.90
46508;DHT22;32223;53.654;10.014;2023-01-19T06:31:03;1.90;99.90
46508;DHT22;32223;53.654;10.014;2023-01-19T06:33:29;1.90;99.90
46508;DHT22;32223;53.654;10.014;2023-01-19T06:35:55;1.90;99.90
46508;DHT22;32223;53.654;10.014;2023-01-19T06:38:21;1.90;99.90
46508;DHT22;32223;53.654;10.014;2023-01-19T06:40:56;1.90;99.90
46508;DHT22;32223;53.654;10.014;2023-01-19T06:43:28;1.90;99.90
46508;DHT22;32223;53.654;10.014;2023-01-19T06:45:54;1.90;99.90
46508;DHT22;32223;53.654;10.014;2023-01-19T06:48:20;1.90;99.90
46508;DHT22;32223;53.654;10.014;2023-01-19T06:50:47;1.90;99.90
46508;DHT22;32223;53.654;10.014;2023-01-19T06:53:14;1.90;99.90
46508;DHT22;32223;53.654;10.014;2023-01-19T06:55:42;1.90;99.90
46508;DHT22;32223;53.654;10.014;2023-01-19T06:58:08;1.90;99.90
46508;DHT22;32223;53.654;10.014;2023-01-19T07:00:34;1.90;99.90
46508;DHT22;32223;53.654;10.014;2023-01-19T07:03:00;1.80;99.90
46508;DHT22;32223;53.654;10.014;2023-01-19T07:05:25;1.90;99.90
46508;DHT22;32223;53.654;10.014;2023-01-19T07:07:55;1.90;99.90
46508;DHT22;32223;53.654;10.014;2023-01-19T07:10:22;1.90;99.90
46508;DHT22;32223;53.654;10.014;2023-01-19T07:12:48;1.80;99.90
46508;DHT22;32223;53.654;10.014;2023-01-19T07:15:15;1.80;99.90
46508;DHT22;32223;53.654;10.014;2023-01-19T07:17:41;1.80;99.90
46508;DHT22;32223;53.654;10.014;2023-01-19T07:20:11;1.80;99.90
46508;DHT22;32223;53.654;10.014;2023-01-19T07:22:40;1.90;99.90
46508;DHT22;32223;53.654;10.014;2023-01-19T07:25:08;1.90;99.90
46508;DHT22;32223;53.654;10.014;2023-01-19T07:27:34;1.90;99.90
46508;DHT22;32223;53.654;10.014;2023-01-19T07:29:59;1.90;99.90
46508;DHT22;32223;53.654;10.014;2023-01-19T07:32:27;1.90;99.90
46508;DHT22;32223;53.654;10.014;2023-01-19T07:34:53;1.90;99.90
46508;DHT22;32223;53.654;10.014;2023-01-19T07:37:18;1.90;99.90
46508;DHT22;32223;53.654;10.014;2023-01-19T07:39:44;1.80;99.90
46508;DHT22;32223;53.654;10.014;2023-01-19T07:42:10;1.90;99.90
46508;DHT22;32223;53.654;10.014;2023-01-19T07:44:35;1.90;99.90
46508;DHT22;32223;53.654;10.014;2023-01-19T07:47:01;1.90;99.90
46508;DHT22;32223;53.654;10.014;2023-01-19T07:49:27;1.90;99.90
46508;DHT22;32223;53.654;10.014;2023-01-19T07:51:52;1.90;99.90
46508;DHT22;32223;53.654;10.014;2023-01-19T07:54:20;1.90;99.90
46508;DHT22;32223;53.654;10.014;2023-01-19T07:56:46;2.00;99.90
46508;DHT22;32223;53.654;10.014;2023-01-19T07:59:12;1.90;99.90
46508;DHT22;32223;53.654;10.014;2023-01-19T08:01:37;1.90;99.90
46508;DHT22;32223;53.654;10.014;2023-01-19T08:04:03;1.90;99.90
46508;DHT22;32223;53.654;10.014;2023-01-19T08:06:33;1.90;99.90
46508;DHT22;32223;53.654;10.014;2023-01-19T08:08:59;1.90;99.90
46508;DHT22;32223;53.654;10.014;2023-01-19T08:11:25;2.00;99.90
46508;DHT22;32223;53.654;10.014;2023-01-19T08:13:51;2.00;99.90
46508;DHT22;32223;53.654;10.014;2023-01-19T08:16:16;2.00;99.90
46508;DHT22;32223;53.654;10.014;2023-01-19T08:18:42;2.00;99.90
46508;DHT22;32223;53.654;10.014;2023-01-19T08:21:07;2.00;99.90
46508;DHT22;32223;53.654;10.014;2023-01-19T08:23:33;2.00;99.90
46508;DHT22;32223;53.654;10.014;2023-01-19T08:26:00;2.00;99.90
46508;DHT22;32223;53.654;10.014;2023-01-19T08:28:26;2.00;99.90
46508;DHT22;32223;53.654;10.014;2023-01-19T08:30:51;2.10;99.90
46508;DHT22;32223;53.654;10.014;2023-01-19T08:33:23;2.10;99.90
46508;DHT22;32223;53.654;10.014;2023-01-19T08:35:51;2.10;99.90
46508;DHT22;32223;53.654;10.014;2023-01-19T08:38:17;2.10;99.90
46508;DHT22;32223;53.654;10.014;2023-01-19T08:40:43;2.20;99.90
46508;DHT22;32223;53.654;10.014;2023-01-19T08:43:11;2.20;99.90
46508;DHT22;32223;53.654;10.014;2023-01-19T08:45:38;2.20;99.90
46508;DHT22;32223;53.654;10.014;2023-01-19T08:48:06;2.20;99.90
46508;DHT22;32223;53.654;10.014;2023-01-19T08:50:32;2.30;99.90
46508;DHT22;32223;53.654;10.014;2023-01-19T08:52:59;2.30;99.90
46508;DHT22;32223;53.654;10.014;2023-01-19T08:55:27;2.30;99.90
46508;DHT22;32223;53.654;10.014;2023-01-19T08:57:54;2.30;99.90
46508;DHT22;32223;53.654;10.014;2023-01-19T09:00:22;2.40;99.90
46508;DHT22;32223;53.654;10.014;2023-01-19T09:02:47;2.40;99.90
46508;DHT22;32223;53.654;10.014;2023-01-19T09:05:13;2.40;99.90
46508;DHT22;32223;53.654;10.014;2023-01-19T09:07:39;2.40;99.90
46508;DHT22;32223;53.654;10.014;2023-01-19T09:10:06;2.40;99.90
46508;DHT22;32223;53.654;10.014;2023-01-19T09:12:32;2.40;99.90
46508;DHT22;32223;53.654;10.014;2023-01-19T09:14:58;2.40;99.90
46508;DHT22;32223;53.654;10.014;2023-01-19T09:17:23;2.40;99.90
46508;DHT22;32223;53.654;10.014;2023-01-19T09:19:49;2.40;99.90
46508;DHT22;32223;53.654;10.014;2023-01-19T09:22:15;2.30;99.90
46508;DHT22;32223;53.654;10.014;2023-01-19T09:24:40;2.30;99.90
46508;DHT22;32223;53.654;10.014;2023-01-19T09:27:06;2.40;99.90
46508;DHT22;32223;53.654;10.014;2023-01-19T09:29:31;2.40;99.90
46508;DHT22;32223;53.654;10.014;2023-01-19T09:31:57;2.40;99.90
46508;DHT22;32223;53.654;10.014;2023-01-19T09:34:23;2.40;99.90
46508;DHT22;32223;53.654;10.014;2023-01-19T09:36:50;2.50;99.90
46508;DHT22;32223;53.654;10.014;2023-01-19T09:39:16;2.40;99.90
46508;DHT22;32223;53.654;10.014;2023-01-19T09:41:48;2.50;99.90
46508;DHT22;32223;53.654;10.014;2023-01-19T09:44:25;2.50;99.90
46508;DHT22;32223;53.654;10.014;2023-01-19T09:46:52;2.50;99.90
46508;DHT22;32223;53.654;10.014;2023-01-19T09:49:32;2.60;99.90
46508;DHT22;32223;53.654;10.014;2023-01-19T09:51:59;2.60;99.90
46508;DHT22;32223;53.654;10.014;2023-01-19T09:54:40;2.60;99.90
46508;DHT22;32223;53.654;10.014;2023-01-19T09:57:12;2.70;99.90
46508;DHT22;32223;53.654;10.014;2023-01-19T09:59:39;2.70;99.90
46508;DHT22;32223;53.654;10.014;2023-01-19T10:02:29;2.60;99.90
46508;DHT22;32223;53.654;10.014;2023-01-19T10:10:34;2.70;99.90
46508;DHT22;32223;53.654;10.014;2023-01-19T10:13:16;2.70;99.90
46508;DHT22;32223;53.654;10.014;2023-01-19T10:18:47;2.60;99.90
46508;DHT22;32223;53.654;10.014;2023-01-19T10:21:23;2.70;99.90
46508;DHT22;32223;53.654;10.014;2023-01-19T10:24:12;2.60;99.90
46508;DHT22;32223;53.654;10.014;2023-01-19T10:26:44;2.80;99.90
46508;DHT22;32223;53.654;10.014;2023-01-19T10:31:41;3.00;99.90
46508;DHT22;32223;53.654;10.014;2023-01-19T10:34:12;3.00;99.90
46508;DHT22;32223;53.654;10.014;2023-01-19T10:36:45;3.10;99.90
46508;DHT22;32223;53.654;10.014;2023-01-19T10:39:15;3.10;99.90
46508;DHT22;32223;53.654;10.014;2023-01-19T10:41:42;3.20;99.90
46508;DHT22;32223;53.654;10.014;2023-01-19T10:44:09;3.10;99.90
46508;DHT22;32223;53.654;10.014;2023-01-19T10:46:43;3.10;99.90
46508;DHT22;32223;53.654;10.014;2023-01-19T10:49:38;3.10;99.90
46508;DHT22;32223;53.654;10.014;2023-01-19T10:52:17;3.10;99.90
46508;DHT22;32223;53.654;10.014;2023-01-19T10:54:44;3.00;99.90
46508;DHT22;32223;53.654;10.014;2023-01-19T10:57:31;3.10;99.90
46508;DHT22;32223;53.654;10.014;2023-01-19T10:59:57;3.00;99.90
46508;DHT22;32223;53.654;10.014;2023-01-19T11:02:29;3.00;99.90
46508;DHT22;32223;53.654;10.014;2023-01-19T11:04:57;3.00;99.90
46508;DHT22;32223;53.654;10.014;2023-01-19T11:07:29;3.00;99.90
46508;DHT22;32223;53.654;10.014;2023-01-19T11:13:09;2.90;99.90
46508;DHT22;32223;53.654;10.014;2023-01-19T11:15:43;2.90;99.90
46508;DHT22;32223;53.654;10.014;2023-01-19T11:18:30;2.90;99.90
46508;DHT22;32223;53.654;10.014;2023-01-19T11:21:02;2.90;99.90
46508;DHT22;32223;53.654;10.014;2023-01-19T11:23:39;2.90;99.90
46508;DHT22;32223;53.654;10.014;2023-01-19T11:26:24;2.90;99.90
46508;DHT22;32223;53.654;10.014;2023-01-19T11:28:51;2.80;99.90
46508;DHT22;32223;53.654;10.014;2023-01-19T11:31:39;2.90;99.90
46508;DHT22;32223;53.654;10.014;2023-01-19T11:37:23;2.90;99.90
46508;DHT22;32223;53.654;10.014;2023-01-19T11:39:48;2.80;99.90
46508;DHT22;32223;53.654;10.014;2023-01-19T11:42:15;2.80;99.90
46508;DHT22;32223;53.654;10.014;2023-01-19T11:45:06;2.70;99.90
46508;DHT22;32223;53.654;10.014;2023-01-19T11:47:42;2.70;99.90
46508;DHT22;32223;53.654;10.014;2023-01-19T11:50:24;2.80;99.90
46508;DHT22;32223;53.654;10.014;2023-01-19T11:52:59;2.80;99.90
46508;DHT22;32223;53.654;10.014;2023-01-19T11:57:54;2.80;99.90
46508;DHT22;32223;53.654;10.014;2023-01-19T12:00:37;2.80;99.90
46508;DHT22;32223;53.654;10.014;2023-01-19T12:05:54;2.90;99.90
46508;DHT22;32223;53.654;10.014;2023-01-19T12:08:24;2.90;99.90
46508;DHT22;32223;53.654;10.014;2023-01-19T12:10:54;2.90;99.90
46508;DHT22;32223;53.654;10.014;2023-01-19T12:13:26;2.90;99.90
46508;DHT22;32223;53.654;10.014;2023-01-19T12:18:39;2.90;99.90
46508;DHT22;32223;53.654;10.014;2023-01-19T12:21:05;3.00;99.90
46508;DHT22;32223;53.654;10.014;2023-01-19T12:23:45;3.10;99.90
46508;DHT22;32223;53.654;10.014;2023-01-19T12:26:19;3.10;99.90
46508;DHT22;32223;53.654;10.014;2023-01-19T12:28:50;3.10;99.90
46508;DHT22;32223;53.654;10.014;2023-01-19T12:31:18;3.20;99.90
46508;DHT22;32223;53.654;10.014;2023-01-19T12:33:45;3.20;99.90
46508;DHT22;32223;53.654;10.014;2023-01-19T12:38:59;3.20;99.90
46508;DHT22;32223;53.654;10.014;2023-01-19T12:41:37;3.20;99.90
46508;DHT22;32223;53.654;10.014;2023-01-19T12:46:37;3.10;99.90
46508;DHT22;32223;53.654;10.014;2023-01-19T12:51:40;3.10;99.90
46508;DHT22;32223;53.654;10.014;2023-01-19T12:54:07;3.00;99.90
46508;DHT22;32223;53.654;10.014;2023-01-19T12:56:41;3.00;99.90
46508;DHT22;32223;53.654;10.014;2023-01-19T12:59:22;3.00;99.90
46508;DHT22;32223;53.654;10.014;2023-01-19T13:10:54;3.10;99.90
46508;DHT22;32223;53.654;10.014;2023-01-19T13:13:27;3.00;99.90
46508;DHT22;32223;53.654;10.014;2023-01-19T13:15:54;3.10;99.90
46508;DHT22;32223;53.654;10.014;2023-01-19T13:18:25;3.10;99.90
46508;DHT22;32223;53.654;10.014;2023-01-19T13:21:06;3.00;99.90
46508;DHT22;32223;53.654;10.014;2023-01-19T13:26:21;3.10;99.90
46508;DHT22;32223;53.654;10.014;2023-01-19T13:31:46;3.10;99.90
46508;DHT22;32223;53.654;10.014;2023-01-19T13:34:25;3.20;99.90
46508;DHT22;32223;53.654;10.014;2023-01-19T13:36:53;3.30;99.90
46508;DHT22;32223;53.654;10.014;2023-01-19T13:39:25;3.40;99.90
46508;DHT22;32223;53.654;10.014;2023-01-19T13:41:55;3.50;99.90
46508;DHT22;32223;53.654;10.014;2023-01-19T13:44:27;3.50;99.90
46508;DHT22;32223;53.654;10.014;2023-01-19T13:46:54;3.60;99.90
46508;DHT22;32223;53.654;10.014;2023-01-19T13:54:50;3.60;99.90
46508;DHT22;32223;53.654;10.014;2023-01-19T13:57:37;3.60;99.90
46508;DHT22;32223;53.654;10.014;2023-01-19T14:02:32;3.60;99.90
46508;DHT22;32223;53.654;10.014;2023-01-19T14:05:14;3.70;99.90
46508;DHT22;32223;53.654;10.014;2023-01-19T14:07:40;3.80;99.90
46508;DHT22;32223;53.654;10.014;2023-01-19T14:10:12;3.90;99.90
46508;DHT22;32223;53.654;10.014;2023-01-19T14:12:38;3.90;99.90
46508;DHT22;32223;53.654;10.014;2023-01-19T14:15:06;3.90;99.90
46508;DHT22;32223;53.654;10.014;2023-01-19T14:17:37;3.90;99.90
46508;DHT22;32223;53.654;10.014;2023-01-19T14:20:03;3.90;99.90
46508;DHT22;32223;53.654;10.014;2023-01-19T14:22:40;3.80;99.90
46508;DHT22;32223;53.654;10.014;2023-01-19T14:25:26;3.80;99.90
46508;DHT22;32223;53.654;10.014;2023-01-19T14:28:45;3.90;99.90
46508;DHT22;32223;53.654;10.014;2023-01-19T14:31:24;3.90;99.90
46508;DHT22;32223;53.654;10.014;2023-01-19T14:33:53;4.00;99.90
46508;DHT22;32223;53.654;10.014;2023-01-19T14:36:26;4.00;99.90
46508;DHT22;32223;53.654;10.014;2023-01-19T14:38:53;4.00;99.90
46508;DHT22;32223;53.654;10.014;2023-01-19T14:41:32;3.90;99.90
46508;DHT22;32223;53.654;10.014;2023-01-19T14:44:00;3.70;99.90
46508;DHT22;32223;53.654;10.014;2023-01-19T14:46:27;3.60;99.90
46508;DHT22;32223;53.654;10.014;2023-01-19T14:49:01;3.70;99.90
46508;DHT22;32223;53.654;10.014;2023-01-19T14:51:27;3.60;99.90
46508;DHT22;32223;53.654;10.014;2023-01-19T14:53:55;3.70;99.90
46508;DHT22;32223;53.654;10.014;2023-01-19T14:56:30;3.70;99.90
46508;DHT22;32223;53.654;10.014;2023-01-19T14:58:58;3.80;99.90
46508;DHT22;32223;53.654;10.014;2023-01-19T15:01:25;3.90;99.90
46508;DHT22;32223;53.654;10.014;2023-01-19T15:03:53;4.00;99.90
46508;DHT22;32223;53.654;10.014;2023-01-19T15:06:22;4.10;99.90
46508;DHT22;32223;53.654;10.014;2023-01-19T15:08:48;4.10;99.90
46508;DHT22;32223;53.654;10.014;2023-01-19T15:11:30;4.10;99.90
46508;DHT22;32223;53.654;10.014;2023-01-19T15:13:57;4.00;99.90
46508;DHT22;32223;53.654;10.014;2023-01-19T15:16:24;3.90;99.90
46508;DHT22;32223;53.654;10.014;2023-01-19T15:18:50;3.80;99.90
46508;DHT22;32223;53.654;10.014;2023-01-19T15:21:18;3.70;99.90
46508;DHT22;32223;53.654;10.014;2023-01-19T15:23:45;3.60;99.90
46508;DHT22;32223;53.654;10.014;2023-01-19T15:26:16;3.50;99.90
46508;DHT22;32223;53.654;10.014;2023-01-19T15:28:42;3.40;99.90
46508;DHT22;32223;53.654;10.014;2023-01-19T15:31:14;3.40;99.90
46508;DHT22;32223;53.654;10.014;2023-01-19T15:33:39;3.20;99.90
46508;DHT22;32223;53.654;10.014;2023-01-19T15:36:15;3.10;99.90
46508;DHT22;32223;53.654;10.014;2023-01-19T15:38:41;3.10;99.90
46508;DHT22;32223;53.654;10.014;2023-01-19T15:41:21;3.00;99.90
46508;DHT22;32223;53.654;10.014;2023-01-19T15:43:48;3.00;99.90
46508;DHT22;32223;53.654;10.014;2023-01-19T15:46:14;2.90;99.90
46508;DHT22;32223;53.654;10.014;2023-01-19T15:48:41;2.90;99.90
46508;DHT22;32223;53.654;10.014;2023-01-19T15:51:12;2.80;99.90
46508;DHT22;32223;53.654;10.014;2023-01-19T15:53:39;2.80;99.90
46508;DHT22;32223;53.654;10.014;2023-01-19T15:56:05;2.70;99.90
46508;DHT22;32223;53.654;10.014;2023-01-19T15:58:31;2.60;99.90
46508;DHT22;32223;53.654;10.014;2023-01-19T16:00:57;2.60;99.90
46508;DHT22;32223;53.654;10.014;2023-01-19T16:03:24;2.50;99.90
46508;DHT22;32223;53.654;10.014;2023-01-19T16:05:50;2.50;99.90
46508;DHT22;32223;53.654;10.014;2023-01-19T16:08:16;2.40;99.90
46508;DHT22;32223;53.654;10.014;2023-01-19T16:10:42;2.40;99.90
46508;DHT22;32223;53.654;10.014;2023-01-19T16:13:09;2.40;99.90
46508;DHT22;32223;53.654;10.014;2023-01-19T16:15:36;2.30;99.90
46508;DHT22;32223;53.654;10.014;2023-01-19T16:18:03;2.30;99.90
46508;DHT22;32223;53.654;10.014;2023-01-19T16:20:29;2.40;99.90
46508;DHT22;32223;53.654;10.014;2023-01-19T16:22:54;2.40;99.90
46508;DHT22;32223;53.654;10.014;2023-01-19T16:25:20;2.30;99.90
46508;DHT22;32223;53.654;10.014;2023-01-19T16:27:48;2.30;99.90
46508;DHT22;32223;53.654;10.014;2023-01-19T16:30:14;2.30;99.90
46508;DHT22;32223;53.654;10.014;2023-01-19T16:32:40;2.30;99.90
46508;DHT22;32223;53.654;10.014;2023-01-19T16:35:06;2.20;99.90
46508;DHT22;32223;53.654;10.014;2023-01-19T16:37:32;2.20;99.90
46508;DHT22;32223;53.654;10.014;2023-01-19T16:39:58;2.20;99.90
46508;DHT22;32223;53.654;10.014;2023-01-19T16:42:23;2.20;99.90
46508;DHT22;32223;53.654;10.014;2023-01-19T16:44:49;2.20;99.90
46508;DHT22;32223;53.654;10.014;2023-01-19T16:47:14;2.20;99.90
46508;DHT22;32223;53.654;10.014;2023-01-19T16:49:40;2.10;99.90
46508;DHT22;32223;53.654;10.014;2023-01-19T16:52:05;2.10;99.90
46508;DHT22;32223;53.654;10.014;2023-01-19T16:54:31;2.10;99.90
46508;DHT22;32223;53.654;10.014;2023-01-19T16:56:57;2.00;99.90